createdAt,value
2018-05-07T00:00:23.015Z,13.30
2018-05-07T00:02:51.754Z,13.20
2018-05-07T00:05:20.515Z,13.20
2018-05-07T00:07:50.894Z,13.20
2018-05-07T00:10:19.595Z,13.20
2018-05-07T00:12:48.324Z,13.20
2018-05-07T00:15:18.509Z,13.10
2018-05-07T00:17:47.514Z,13.10
2018-05-07T00:20:16.256Z,13.10
2018-05-07T00:22:45.003Z,13.00
2018-05-07T00:25:13.734Z,13.00
2018-05-07T00:27:42.437Z,13.00
2018-05-07T00:30:11.177Z,12.90
2018-05-07T00:32:40.683Z,12.80
2018-05-07T00:35:10.176Z,12.80
2018-05-07T00:37:38.701Z,12.80
2018-05-07T00:40:07.505Z,12.80
2018-05-07T00:42:37.156Z,12.80
2018-05-07T00:45:06.093Z,12.80
2018-05-07T00:47:34.916Z,12.70
2018-05-07T00:50:03.335Z,12.70
2018-05-07T00:52:32.186Z,12.50
2018-05-07T00:55:11.932Z,12.50
2018-05-07T00:57:40.678Z,12.50
2018-05-07T01:00:09.061Z,12.40
2018-05-07T01:02:38.491Z,12.40
2018-05-07T01:05:07.405Z,12.40
2018-05-07T01:07:36.681Z,12.40
2018-05-07T01:10:05.806Z,12.40
2018-05-07T01:12:34.231Z,12.30
2018-05-07T01:15:03.000Z,12.30
2018-05-07T01:17:32.519Z,12.20
2018-05-07T01:20:01.296Z,12.20
2018-05-07T01:22:30.853Z,12.20
2018-05-07T01:24:59.280Z,12.10
2018-05-07T01:27:28.042Z,12.10
2018-05-07T01:29:57.558Z,12.10
2018-05-07T01:32:26.296Z,12.10
2018-05-07T01:34:56.522Z,12.00
2018-05-07T01:37:25.275Z,11.90
2018-05-07T01:39:54.785Z,11.80
2018-05-07T01:42:23.967Z,11.80
2018-05-07T01:44:52.700Z,11.80
2018-05-07T01:47:21.458Z,11.70
2018-05-07T01:49:50.207Z,11.70
2018-05-07T01:52:18.927Z,11.60
2018-05-07T01:54:47.675Z,11.60
2018-05-07T01:57:16.399Z,11.60
2018-05-07T01:59:45.181Z,11.50
2018-05-07T02:02:13.903Z,11.50
2018-05-07T02:04:43.417Z,11.50
2018-05-07T02:07:12.208Z,11.50
2018-05-07T02:09:40.951Z,11.50
2018-05-07T02:12:09.758Z,11.40
2018-05-07T02:14:38.467Z,11.40
2018-05-07T02:17:07.243Z,11.40
2018-05-07T02:19:36.755Z,11.40
2018-05-07T02:22:06.276Z,11.30
2018-05-07T02:24:35.048Z,11.30
2018-05-07T02:27:04.405Z,11.30
2018-05-07T02:29:33.160Z,11.30
2018-05-07T02:32:01.896Z,11.30
2018-05-07T02:34:30.655Z,11.30
2018-05-07T02:37:02.219Z,11.00
2018-05-07T02:39:30.992Z,11.00
2018-05-07T02:41:59.769Z,11.00
2018-05-07T02:47:02.110Z,11.00
2018-05-07T02:49:31.604Z,11.00
2018-05-07T02:52:00.374Z,10.90
2018-05-07T02:54:30.357Z,10.90
2018-05-07T02:56:59.788Z,10.80
2018-05-07T02:59:29.299Z,10.70
2018-05-07T03:01:58.100Z,10.60
2018-05-07T03:04:26.851Z,10.60
2018-05-07T03:06:54.975Z,10.60
2018-05-07T03:09:23.768Z,10.70
2018-05-07T03:11:52.530Z,10.70
2018-05-07T03:14:21.297Z,10.70
2018-05-07T03:16:50.825Z,10.70
2018-05-07T03:19:19.547Z,10.70
2018-05-07T03:21:48.399Z,10.60
2018-05-07T03:24:17.140Z,10.60
2018-05-07T03:26:46.653Z,10.60
2018-05-07T03:29:16.199Z,10.50
2018-05-07T03:31:45.721Z,10.40
2018-05-07T03:34:15.173Z,10.50
2018-05-07T03:36:44.713Z,10.30
2018-05-07T03:39:14.046Z,10.30
2018-05-07T03:41:42.837Z,10.30
2018-05-07T03:44:12.667Z,10.30
2018-05-07T03:46:41.474Z,10.30
2018-05-07T03:49:11.047Z,10.30
2018-05-07T03:51:39.150Z,10.20
2018-05-07T03:54:08.643Z,10.20
2018-05-07T03:56:37.407Z,10.20
2018-05-07T03:59:06.144Z,10.20
2018-05-07T04:01:36.331Z,10.20
2018-05-07T04:04:05.086Z,10.20
2018-05-07T04:06:33.913Z,10.20
2018-05-07T04:09:02.646Z,10.20
2018-05-07T04:11:31.409Z,10.20
2018-05-07T04:14:00.129Z,10.20
2018-05-07T04:16:40.080Z,10.20
2018-05-07T04:19:19.912Z,10.20
2018-05-07T04:22:01.203Z,10.20
2018-05-07T04:24:29.979Z,10.20
2018-05-07T04:26:59.492Z,10.20
2018-05-07T04:29:28.456Z,10.20
2018-05-07T04:31:57.233Z,10.20
2018-05-07T04:34:26.708Z,10.20
2018-05-07T04:36:55.455Z,10.20
2018-05-07T04:39:24.977Z,10.40
2018-05-07T04:41:54.462Z,10.50
2018-05-07T04:44:23.960Z,10.40
2018-05-07T04:46:52.731Z,10.40
2018-05-07T04:49:21.805Z,10.40
2018-05-07T04:51:50.580Z,10.50
2018-05-07T04:54:20.162Z,10.50
2018-05-07T04:56:49.731Z,10.50
2018-05-07T04:59:18.449Z,10.50
2018-05-07T05:01:46.969Z,10.60
2018-05-07T06:27:44.467Z,12.80
2018-05-07T06:30:18.196Z,13.00
2018-05-07T06:33:08.573Z,13.20
2018-05-07T06:38:14.917Z,13.40
2018-05-07T06:40:52.405Z,13.70
2018-05-07T06:43:29.729Z,13.70
2018-05-07T06:46:04.996Z,13.80
2018-05-07T06:48:39.194Z,14.20
2018-05-07T06:51:13.941Z,14.10
2018-05-07T06:53:49.126Z,14.40
2018-05-07T06:56:27.983Z,14.40
2018-05-07T06:59:00.554Z,14.60
2018-05-07T07:01:38.524Z,14.70
2018-05-07T07:04:19.876Z,14.80
2018-05-07T07:12:28.928Z,15.60
2018-05-07T07:17:42.198Z,15.70
2018-05-07T07:20:14.854Z,15.90
2018-05-07T07:22:45.226Z,15.90
2018-05-07T07:25:16.524Z,16.10
2018-05-07T07:27:47.918Z,16.30
2018-05-07T07:33:12.313Z,16.60
2018-05-07T07:35:45.534Z,17.00
2018-05-07T07:38:14.345Z,17.00
2018-05-07T07:40:45.255Z,17.10
2018-05-07T07:43:14.670Z,17.30
2018-05-07T07:45:45.334Z,17.50
2018-05-07T07:48:15.191Z,17.60
2018-05-07T07:50:45.537Z,17.90
2018-05-07T07:53:15.381Z,18.10
2018-05-07T07:55:44.209Z,18.20
2018-05-07T07:58:15.285Z,18.60
2018-05-07T08:00:45.136Z,18.50
2018-05-07T08:03:13.668Z,18.70
2018-05-07T08:05:42.657Z,18.80
2018-05-07T08:08:11.473Z,19.00
2018-05-07T08:10:40.340Z,19.10
2018-05-07T08:13:10.105Z,19.20
2018-05-07T08:15:39.607Z,19.50
2018-05-07T08:18:09.276Z,19.60
2018-05-07T08:20:39.412Z,19.80
2018-05-07T08:23:11.658Z,20.00
2018-05-07T08:25:40.443Z,20.20
2018-05-07T08:28:10.295Z,20.50
2018-05-07T08:30:41.022Z,20.50
2018-05-07T08:33:10.704Z,20.80
2018-05-07T08:35:39.514Z,21.00
2018-05-07T08:38:11.350Z,21.20
2018-05-07T08:40:41.926Z,21.60
2018-05-07T08:43:12.377Z,21.60
2018-05-07T08:45:42.429Z,21.70
2018-05-07T08:48:12.511Z,21.80
2018-05-07T08:50:41.721Z,21.80
2018-05-07T08:53:10.471Z,22.00
2018-05-07T08:55:41.521Z,22.10
2018-05-07T08:58:10.957Z,22.10
2018-05-07T09:00:40.799Z,22.20
2018-05-07T09:03:09.568Z,22.30
2018-05-07T09:05:38.383Z,22.50
2018-05-07T09:08:07.209Z,22.60
2018-05-07T09:10:37.954Z,22.70
2018-05-07T09:13:07.352Z,22.80
2018-05-07T10:31:35.258Z,23.10
2018-05-07T10:34:04.090Z,25.40
2018-05-07T10:36:34.483Z,25.30
2018-05-07T10:39:03.242Z,25.30
2018-05-07T10:41:31.712Z,25.50
2018-05-07T10:44:00.561Z,25.60
2018-05-07T10:46:29.117Z,25.90
2018-05-07T10:48:57.838Z,25.70
2018-05-07T10:51:27.038Z,25.70
2018-05-07T10:53:59.633Z,25.80
2018-05-07T10:56:28.138Z,25.90
2018-05-07T10:58:56.949Z,25.90
2018-05-07T11:01:25.448Z,25.60
2018-05-07T11:03:54.188Z,25.70
2018-05-07T11:06:22.692Z,25.90
2018-05-07T11:08:51.198Z,26.10
2018-05-07T11:11:21.352Z,26.10
2018-05-07T11:13:49.821Z,25.90
2018-05-07T11:16:21.721Z,26.00
2018-05-07T11:18:50.203Z,25.90
2018-05-07T11:21:18.766Z,25.90
2018-05-07T11:23:47.771Z,26.20
2018-05-07T11:26:16.267Z,26.40
2018-05-07T11:28:45.166Z,26.70
2018-05-07T11:31:14.175Z,26.80
2018-05-07T11:33:44.037Z,26.90
2018-05-07T11:36:12.333Z,26.90
2018-05-07T11:38:40.798Z,27.00
2018-05-07T11:41:09.303Z,26.90
2018-05-07T11:43:37.776Z,27.00
2018-05-07T11:46:06.261Z,27.00
2018-05-07T11:48:34.740Z,26.90
2018-05-07T11:51:02.974Z,26.90
2018-05-07T11:53:32.229Z,27.30
2018-05-07T11:56:00.944Z,27.30
2018-05-07T11:58:29.411Z,27.30
2018-05-07T12:00:57.920Z,27.20
2018-05-07T12:03:28.621Z,27.20
2018-05-07T12:05:57.918Z,27.20
2018-05-07T12:08:26.381Z,27.40
2018-05-07T12:10:54.876Z,27.40
2018-05-07T12:13:23.752Z,27.30
2018-05-07T12:15:52.386Z,27.30
2018-05-07T12:18:20.967Z,27.30
2018-05-07T12:20:50.134Z,27.60
2018-05-07T12:23:20.746Z,27.60
2018-05-07T12:25:49.380Z,27.70
2018-05-07T12:28:17.871Z,27.70
2018-05-07T12:30:47.217Z,27.80
2018-05-07T12:33:15.722Z,27.80
2018-05-07T12:35:44.768Z,27.80
2018-05-07T12:38:14.137Z,28.00
2018-05-07T12:40:42.667Z,27.90
2018-05-07T12:43:11.146Z,28.00
2018-05-07T12:45:39.651Z,27.90
2018-05-07T12:48:08.214Z,28.10
2018-05-07T12:50:36.751Z,28.10
2018-05-07T12:55:40.338Z,28.20
2018-05-07T12:58:08.785Z,28.20
2018-05-07T13:00:44.759Z,28.10
2018-05-07T13:03:13.887Z,28.10
2018-05-07T13:05:43.567Z,28.10
2018-05-07T13:08:11.851Z,28.20
2018-05-07T13:10:40.118Z,28.10
2018-05-07T13:13:08.707Z,28.20
2018-05-07T13:15:37.303Z,28.30
2018-05-07T13:18:05.541Z,28.40
2018-05-07T13:20:34.818Z,27.90
2018-05-07T13:23:03.315Z,27.90
2018-05-07T13:25:33.358Z,28.20
2018-05-07T13:28:01.907Z,28.20
2018-05-07T13:30:31.434Z,28.30
2018-05-07T13:33:04.936Z,28.60
2018-05-07T13:35:52.157Z,28.60
2018-05-07T13:38:21.652Z,28.50
2018-05-07T13:43:29.611Z,28.40
2018-05-07T13:46:02.673Z,28.40
2018-05-07T13:51:06.416Z,28.70
2018-05-07T13:53:35.934Z,28.50
2018-05-07T13:56:04.983Z,28.50
2018-05-07T13:58:33.809Z,28.70
2018-05-07T14:01:02.351Z,28.70
2018-05-07T14:03:31.318Z,28.80
2018-05-07T14:05:59.850Z,28.90
2018-05-07T14:08:30.089Z,29.00
2018-05-07T14:10:59.035Z,28.90
2018-05-07T14:13:30.003Z,28.80
2018-05-07T14:15:59.426Z,28.90
2018-05-07T14:18:27.961Z,28.90
2018-05-07T14:20:56.501Z,28.90
2018-05-07T14:23:25.845Z,29.00
2018-05-07T14:25:59.837Z,28.90
2018-05-07T14:28:29.535Z,28.90
2018-05-07T14:30:58.845Z,28.90
2018-05-07T14:33:34.866Z,29.00
2018-05-07T14:36:10.230Z,28.90
2018-05-07T14:38:38.730Z,28.70
2018-05-07T14:41:10.986Z,28.50
2018-05-07T14:43:40.926Z,28.40
2018-05-07T14:46:09.507Z,28.50
2018-05-07T14:48:38.260Z,28.60
2018-05-07T14:51:08.427Z,28.60
2018-05-07T14:53:36.921Z,28.50
2018-05-07T14:56:06.913Z,28.40
2018-05-07T14:58:35.698Z,28.50
2018-05-07T15:01:08.319Z,28.80
2018-05-07T15:03:45.079Z,28.80
2018-05-07T15:06:14.938Z,28.80
2018-05-07T15:08:44.304Z,28.70
2018-05-07T15:11:13.755Z,28.40
2018-05-07T15:13:44.040Z,28.30
2018-05-07T15:16:12.507Z,28.20
2018-05-07T15:18:40.688Z,28.10
2018-05-07T15:21:09.177Z,28.00
2018-05-07T15:23:38.389Z,27.90
2018-05-07T15:26:07.297Z,27.60
2018-05-07T15:28:36.607Z,27.70
2018-05-07T15:31:05.880Z,27.80
2018-05-07T15:33:34.375Z,27.80
2018-05-07T15:36:03.635Z,27.70
2018-05-07T15:38:33.450Z,27.50
2018-05-07T15:41:02.014Z,27.50
2018-05-07T15:43:30.277Z,27.30
2018-05-07T15:46:06.205Z,27.30
2018-05-07T15:48:38.714Z,27.30
2018-05-07T15:51:08.960Z,27.20
2018-05-07T15:53:38.402Z,27.20
2018-05-07T15:56:08.453Z,27.10
2018-05-07T15:58:37.712Z,27.10
2018-05-07T16:01:09.475Z,27.10
2018-05-07T16:03:38.681Z,26.90
2018-05-07T16:06:06.920Z,26.90
2018-05-07T16:08:36.287Z,26.70
2018-05-07T16:11:12.261Z,26.70
2018-05-07T16:13:40.658Z,26.70
2018-05-07T16:16:15.768Z,26.70
2018-05-07T16:18:44.733Z,26.50
2018-05-07T16:21:14.329Z,26.30
2018-05-07T16:23:44.022Z,26.20
2018-05-07T16:26:14.235Z,26.20
2018-05-07T16:31:36.565Z,26.10
2018-05-07T16:34:05.000Z,26.10
2018-05-07T16:42:41.389Z,25.90
2018-05-07T16:45:10.055Z,25.70
2018-05-07T16:47:38.223Z,25.70
2018-05-07T16:58:46.206Z,25.40
2018-05-07T17:01:14.721Z,25.10
2018-05-07T17:03:51.095Z,25.20
2018-05-07T17:06:26.639Z,25.10
2018-05-07T17:15:03.836Z,24.90
2018-05-07T17:17:39.717Z,24.90
2018-05-07T17:20:08.874Z,24.80
2018-05-07T17:22:37.350Z,24.80
2018-05-07T17:25:06.661Z,24.80
2018-05-07T17:27:36.108Z,24.80
2018-05-07T17:30:05.429Z,24.70
2018-05-07T17:32:34.715Z,24.60
2018-05-07T17:35:03.885Z,24.50
2018-05-07T17:37:33.840Z,24.50
2018-05-07T17:40:02.097Z,24.50
2018-05-07T17:42:30.572Z,24.40
2018-05-07T17:44:58.341Z,24.40
2018-05-07T17:47:38.067Z,24.40
2018-05-07T17:50:07.595Z,24.30
2018-05-07T17:52:36.049Z,24.30
2018-05-07T17:55:04.485Z,24.10
2018-05-07T17:57:34.986Z,23.90
2018-05-07T18:00:03.144Z,23.90
2018-05-07T18:02:32.760Z,23.80
2018-05-07T18:05:02.257Z,23.80
2018-05-07T18:07:31.104Z,23.70
2018-05-07T18:10:00.608Z,23.70
2018-05-07T18:12:29.737Z,23.60
2018-05-07T18:17:49.736Z,23.50
2018-05-07T18:20:26.893Z,23.40
2018-05-07T18:22:55.641Z,23.30
2018-05-07T18:28:42.753Z,23.20
2018-05-07T18:31:17.578Z,23.10
2018-05-07T18:33:50.367Z,23.10
2018-05-07T18:36:19.975Z,22.80
2018-05-07T18:38:52.583Z,22.80
2018-05-07T18:41:38.571Z,22.70
2018-05-07T18:44:08.831Z,22.60
2018-05-07T18:46:39.134Z,22.50
2018-05-07T18:49:09.028Z,22.40
2018-05-07T18:51:38.528Z,22.30
2018-05-07T18:56:54.510Z,22.30
2018-05-07T18:59:23.201Z,22.20
2018-05-07T19:01:51.710Z,22.10
2018-05-07T19:04:21.880Z,22.10
2018-05-07T19:06:50.588Z,22.00
2018-05-07T19:09:20.202Z,21.90
2018-05-07T19:11:50.221Z,21.80
2018-05-07T19:17:08.398Z,21.60
2018-05-07T19:19:53.437Z,21.60
2018-05-07T19:22:24.540Z,21.40
2018-05-07T19:28:11.243Z,21.20
2018-05-07T19:30:43.430Z,21.10
2018-05-07T19:33:16.292Z,21.00
2018-05-07T19:35:47.803Z,21.00
2018-05-07T19:38:17.199Z,20.90
2018-05-07T19:40:48.010Z,20.80
2018-05-07T19:43:17.563Z,20.80
2018-05-07T19:45:46.326Z,20.70
2018-05-07T19:48:15.796Z,20.60
2018-05-07T19:50:43.878Z,20.50
2018-05-07T19:53:14.090Z,20.40
2018-05-07T19:55:44.261Z,20.40
2018-05-07T19:58:14.010Z,20.30
2018-05-07T20:00:42.721Z,20.20
2018-05-07T20:03:12.668Z,20.20
2018-05-07T20:05:41.447Z,20.20
2018-05-07T20:08:10.161Z,20.10
2018-05-07T20:10:39.565Z,20.00
2018-05-07T20:13:09.528Z,20.00
2018-05-07T20:15:40.101Z,20.10
2018-05-07T20:18:08.802Z,20.00
2018-05-07T20:20:37.592Z,19.90
2018-05-07T20:23:07.168Z,19.80
2018-05-07T20:25:35.888Z,19.70
2018-05-07T20:28:04.993Z,19.60
2018-05-07T20:30:33.731Z,19.50
2018-05-07T20:33:03.226Z,19.40
2018-05-07T20:35:32.130Z,19.40
2018-05-07T20:38:00.837Z,19.30
2018-05-07T20:40:29.608Z,19.20
2018-05-07T20:42:58.453Z,19.10
2018-05-07T20:45:27.762Z,19.10
2018-05-07T20:47:56.587Z,19.00
2018-05-07T20:50:25.085Z,19.00
2018-05-07T20:52:53.804Z,18.90
2018-05-07T20:55:22.567Z,18.80
2018-05-07T20:57:50.912Z,18.70
2018-05-07T21:00:20.758Z,18.70
2018-05-07T21:02:49.458Z,18.70
2018-05-07T21:05:18.203Z,18.60
2018-05-07T21:07:47.730Z,18.50
2018-05-07T21:10:16.500Z,18.50
2018-05-07T21:12:46.006Z,18.40
2018-05-07T21:15:15.498Z,18.40
2018-05-07T21:17:44.218Z,18.40
2018-05-07T21:20:12.935Z,18.40
2018-05-07T21:22:41.414Z,18.30
2018-05-07T21:25:10.722Z,18.20
2018-05-07T21:27:39.131Z,18.20
2018-05-07T21:30:08.759Z,18.00
2018-05-07T21:32:38.248Z,17.90
2018-05-07T21:35:08.748Z,17.90
2018-05-07T21:37:37.850Z,17.90
2018-05-07T21:40:07.150Z,17.70
2018-05-07T21:42:35.890Z,17.70
2018-05-07T21:45:03.951Z,17.60
2018-05-07T21:47:33.437Z,17.50
2018-05-07T21:50:02.178Z,17.50
2018-05-07T21:52:30.928Z,17.50
2018-05-07T21:55:00.413Z,17.50
2018-05-07T21:57:29.130Z,17.40
2018-05-07T21:59:58.867Z,17.40
2018-05-07T22:02:27.574Z,17.40
2018-05-07T22:04:56.273Z,17.30
2018-05-07T22:07:24.809Z,17.30
2018-05-07T22:09:54.286Z,17.20
2018-05-07T22:12:23.088Z,17.20
2018-05-07T22:14:51.737Z,17.10
2018-05-07T22:17:20.451Z,17.00
2018-05-07T22:19:49.150Z,17.00
2018-05-07T22:22:19.300Z,16.90
2018-05-07T22:24:47.706Z,16.90
2018-05-07T22:27:16.422Z,16.80
2018-05-07T22:29:45.155Z,16.70
2018-05-07T22:32:13.881Z,16.70
2018-05-07T22:34:42.757Z,16.60
2018-05-07T22:37:11.657Z,16.50
2018-05-07T22:39:40.361Z,16.40
2018-05-07T22:42:09.178Z,16.40
2018-05-07T22:44:37.887Z,16.40
2018-05-07T22:47:06.605Z,16.40
2018-05-07T22:49:35.313Z,16.40
2018-05-07T22:52:03.747Z,16.30
2018-05-07T22:54:32.640Z,16.30
2018-05-07T22:57:01.370Z,16.30
2018-05-07T22:59:30.066Z,16.30
2018-05-07T23:01:58.805Z,16.30
2018-05-07T23:04:27.496Z,16.20
2018-05-07T23:06:56.225Z,16.10
2018-05-07T23:09:24.935Z,16.10
2018-05-07T23:11:54.356Z,16.10
2018-05-07T23:14:23.238Z,16.00
2018-05-07T23:16:52.492Z,15.90
2018-05-07T23:19:21.201Z,15.90
2018-05-07T23:21:49.925Z,15.90
2018-05-07T23:24:20.283Z,15.90
2018-05-07T23:26:49.010Z,15.90
2018-05-07T23:29:17.723Z,15.80
2018-05-07T23:31:47.195Z,15.80
2018-05-07T23:34:15.910Z,15.70
2018-05-07T23:36:45.404Z,15.70
2018-05-07T23:39:14.899Z,15.70
2018-05-07T23:41:43.698Z,15.70
2018-05-07T23:44:14.074Z,15.50
2018-05-07T23:46:42.794Z,15.50
2018-05-07T23:49:11.502Z,15.50
2018-05-07T23:51:40.986Z,15.40
2018-05-07T23:54:09.697Z,15.30
2018-05-07T23:56:38.420Z,15.30
2018-05-07T23:59:07.168Z,15.20
